createdAt,value
2018-07-31T00:02:13.387Z,100900.16
2018-07-31T00:04:42.695Z,100900.28
2018-07-31T00:07:11.207Z,100895.01
2018-07-31T00:09:41.339Z,100894.36
2018-07-31T00:12:09.766Z,100889.77
2018-07-31T00:14:38.353Z,100892.39
2018-07-31T00:17:06.778Z,100888.17
2018-07-31T00:19:35.299Z,100875.39
2018-07-31T00:22:03.899Z,100882.52
2018-07-31T00:24:32.444Z,100876.60
2018-07-31T00:27:00.983Z,100878.89
2018-07-31T00:29:29.420Z,100881.19
2018-07-31T00:31:58.931Z,100872.09
2018-07-31T00:34:27.504Z,100875.10
2018-07-31T00:36:56.254Z,100871.23
2018-07-31T00:39:24.702Z,100871.82
2018-07-31T00:41:53.239Z,100862.98
2018-07-31T00:44:22.744Z,100866.19
2018-07-31T00:46:51.331Z,100870.34
2018-07-31T00:49:19.750Z,100871.16
2018-07-31T00:51:48.278Z,100865.54
2018-07-31T00:54:16.695Z,100865.07
2018-07-31T00:56:45.189Z,100865.54
2018-07-31T00:59:13.925Z,100865.62
2018-07-31T01:01:43.283Z,100864.70
2018-07-31T01:04:12.976Z,100866.22
2018-07-31T01:06:42.255Z,100863.59
2018-07-31T01:09:11.899Z,100858.69
2018-07-31T01:11:40.927Z,100857.02
2018-07-31T01:14:10.186Z,100860.39
2018-07-31T01:16:40.483Z,100861.72
2018-07-31T01:19:09.924Z,100854.09
2018-07-31T01:21:38.458Z,100857.03
2018-07-31T01:24:08.517Z,100856.66
2018-07-31T01:26:37.551Z,100863.13
2018-07-31T01:29:06.357Z,100860.60
2018-07-31T01:31:34.758Z,100865.68
2018-07-31T01:34:03.293Z,100865.10
2018-07-31T01:36:31.838Z,100861.45
2018-07-31T01:39:00.641Z,100852.33
2018-07-31T01:41:30.078Z,100855.89
2018-07-31T01:43:59.794Z,100850.55
2018-07-31T01:46:28.691Z,100847.72
2018-07-31T01:48:57.172Z,100849.12
2018-07-31T01:51:25.622Z,100848.44
2018-07-31T01:53:54.380Z,100852.96
2018-07-31T01:56:23.600Z,100856.91
2018-07-31T01:58:52.560Z,100853.54
2018-07-31T02:01:21.313Z,100850.80
2018-07-31T02:03:49.738Z,100851.84
2018-07-31T02:06:18.339Z,100853.34
2018-07-31T02:08:46.900Z,100852.25
2018-07-31T02:11:15.905Z,100859.84
2018-07-31T02:13:44.419Z,100853.42
2018-07-31T02:16:12.826Z,100852.30
2018-07-31T02:18:41.512Z,100849.29
2018-07-31T02:21:10.033Z,100850.14
2018-07-31T02:23:38.458Z,100847.04
2018-07-31T02:26:06.913Z,100847.77
2018-07-31T02:28:37.620Z,100850.98
2018-07-31T02:31:06.414Z,100839.99
2018-07-31T02:33:35.071Z,100842.50
2018-07-31T02:36:04.318Z,100846.17
2018-07-31T02:38:35.104Z,100841.55
2018-07-31T02:41:04.859Z,100843.83
2018-07-31T02:43:33.454Z,100845.30
2018-07-31T02:46:01.976Z,100848.69
2018-07-31T02:48:30.459Z,100843.13
2018-07-31T02:50:58.977Z,100842.43
2018-07-31T02:53:27.472Z,100836.89
2018-07-31T02:55:55.961Z,100845.06
2018-07-31T02:58:24.468Z,100836.61
2018-07-31T03:00:52.939Z,100843.00
2018-07-31T03:03:21.493Z,100845.52
2018-07-31T03:05:49.908Z,100846.48
2018-07-31T03:08:19.343Z,100838.28
2018-07-31T03:10:48.019Z,100847.13
2018-07-31T03:13:16.728Z,100842.61
2018-07-31T03:15:45.909Z,100846.73
2018-07-31T03:18:15.448Z,100842.66
2018-07-31T03:20:44.050Z,100844.34
2018-07-31T03:23:12.518Z,100833.63
2018-07-31T03:25:41.586Z,100843.66
2018-07-31T03:28:10.850Z,100839.52
2018-07-31T03:30:39.508Z,100840.75
2018-07-31T03:33:09.086Z,100841.50
2018-07-31T03:35:37.809Z,100842.14
2018-07-31T03:38:06.249Z,100848.17
2018-07-31T03:40:34.847Z,100845.08
2018-07-31T03:43:04.278Z,100838.30
2018-07-31T03:45:32.791Z,100838.77
2018-07-31T03:48:01.329Z,100847.11
2018-07-31T03:50:29.878Z,100841.58
2018-07-31T03:52:59.309Z,100840.33
2018-07-31T03:55:28.383Z,100847.83
2018-07-31T03:58:00.680Z,100845.59
2018-07-31T04:00:29.665Z,100853.19
2018-07-31T04:02:58.319Z,100845.30
2018-07-31T04:05:26.821Z,100852.86
2018-07-31T04:07:55.403Z,100856.52
2018-07-31T04:10:23.962Z,100854.35
2018-07-31T04:12:52.682Z,100853.19
2018-07-31T04:15:21.232Z,100861.84
2018-07-31T04:17:53.161Z,100859.75
2018-07-31T04:20:22.947Z,100848.57
2018-07-31T04:22:55.613Z,100852.01
2018-07-31T04:25:24.739Z,100849.95
2018-07-31T04:27:55.636Z,100852.33
2018-07-31T04:30:25.328Z,100843.89
2018-07-31T04:32:53.779Z,100846.23
2018-07-31T04:35:23.105Z,100845.30
2018-07-31T04:37:52.035Z,100846.94
2018-07-31T04:40:20.533Z,100849.48
2018-07-31T04:42:49.052Z,100853.04
2018-07-31T04:45:17.637Z,100845.38
2018-07-31T04:47:46.989Z,100842.75
2018-07-31T04:50:16.482Z,100843.81
2018-07-31T04:52:49.088Z,100847.58
2018-07-31T04:55:19.829Z,100846.19
2018-07-31T04:57:49.300Z,100844.23
2018-07-31T05:00:18.480Z,100852.58
2018-07-31T05:02:47.002Z,100854.30
2018-07-31T05:05:17.429Z,100858.99
2018-07-31T05:07:46.704Z,100862.58
2018-07-31T05:10:17.092Z,100862.39
2018-07-31T05:12:46.083Z,100865.98
2018-07-31T05:15:16.864Z,100867.30
2018-07-31T05:17:46.476Z,100866.72
2018-07-31T05:20:16.008Z,100865.80
2018-07-31T05:22:45.057Z,100857.48
2018-07-31T05:25:17.136Z,100857.39
2018-07-31T05:27:45.596Z,100862.13
2018-07-31T05:30:16.223Z,100861.25
2018-07-31T05:32:44.826Z,100865.75
2018-07-31T05:35:13.450Z,100860.88
2018-07-31T05:37:41.939Z,100865.49
2018-07-31T05:40:11.842Z,100861.47
2018-07-31T05:42:40.304Z,100867.28
2018-07-31T05:45:10.472Z,100864.39
2018-07-31T05:47:40.109Z,100870.31
2018-07-31T05:50:10.261Z,100869.94
2018-07-31T05:52:39.563Z,100875.70
2018-07-31T05:55:08.277Z,100878.61
2018-07-31T05:57:38.403Z,100879.74
2018-07-31T06:00:08.361Z,100875.09
2018-07-31T06:02:37.050Z,100879.30
2018-07-31T06:05:06.452Z,100872.06
2018-07-31T06:07:35.867Z,100877.31
2018-07-31T06:10:06.448Z,100876.27
2018-07-31T06:12:35.188Z,100877.69
2018-07-31T06:15:03.798Z,100877.87
2018-07-31T06:17:32.391Z,100875.31
2018-07-31T06:20:01.590Z,100879.44
2018-07-31T06:22:30.034Z,100886.02
2018-07-31T06:25:00.021Z,100886.45
2018-07-31T06:27:28.507Z,100885.53
2018-07-31T06:29:59.728Z,100892.39
2018-07-31T06:32:31.248Z,100888.69
2018-07-31T06:35:00.157Z,100891.94
2018-07-31T06:37:28.659Z,100891.91
2018-07-31T06:39:57.799Z,100893.17
2018-07-31T06:42:28.259Z,100897.64
2018-07-31T06:44:58.026Z,100890.94
2018-07-31T06:47:27.059Z,100893.06
2018-07-31T06:49:55.583Z,100897.08
2018-07-31T06:52:24.960Z,100893.11
2018-07-31T06:54:54.977Z,100896.89
2018-07-31T06:58:54.727Z,100900.12
2018-07-31T07:01:23.876Z,100898.39
2018-07-31T07:03:52.870Z,100902.98
2018-07-31T07:06:22.029Z,100907.37
2018-07-31T07:08:50.591Z,100913.57
2018-07-31T07:11:21.959Z,100914.47
2018-07-31T07:13:52.407Z,100921.11
2018-07-31T07:16:22.797Z,100911.57
2018-07-31T07:18:59.831Z,100914.59
2018-07-31T07:21:32.222Z,100921.83
2018-07-31T07:24:00.649Z,100917.65
2018-07-31T07:26:30.739Z,100920.45
2018-07-31T07:29:25.097Z,100921.47
2018-07-31T07:31:53.640Z,100921.14
2018-07-31T07:34:22.108Z,100922.02
2018-07-31T07:36:52.232Z,100925.62
2018-07-31T07:39:23.097Z,100925.20
2018-07-31T07:41:52.180Z,100920.23
2018-07-31T07:44:21.452Z,100922.72
2018-07-31T07:46:50.138Z,100913.40
2018-07-31T07:49:18.684Z,100914.40
2018-07-31T07:51:47.274Z,100912.19
2018-07-31T07:54:16.340Z,100914.00
2018-07-31T07:56:44.899Z,100915.84
2018-07-31T07:59:13.472Z,100917.56
2018-07-31T08:01:42.251Z,100917.39
2018-07-31T08:04:10.812Z,100916.21
2018-07-31T08:06:39.178Z,100911.41
2018-07-31T08:09:10.286Z,100914.58
2018-07-31T08:11:38.748Z,100917.61
2018-07-31T08:14:07.451Z,100906.87
2018-07-31T08:16:36.200Z,100910.27
2018-07-31T08:19:05.572Z,100904.13
2018-07-31T08:21:34.264Z,100908.48
2018-07-31T08:24:02.789Z,100908.98
2018-07-31T08:26:31.498Z,100909.60
2018-07-31T08:28:59.956Z,100905.66
2018-07-31T08:31:28.385Z,100914.83
2018-07-31T08:33:57.727Z,100913.45
2018-07-31T08:36:26.311Z,100914.87
2018-07-31T08:38:54.817Z,100913.45
2018-07-31T08:41:24.087Z,100913.97
2018-07-31T08:43:53.647Z,100911.42
2018-07-31T08:46:22.373Z,100910.84
2018-07-31T08:48:52.007Z,100918.45
2018-07-31T08:51:24.498Z,100914.58
2018-07-31T08:53:52.986Z,100921.46
2018-07-31T08:56:21.482Z,100917.23
2018-07-31T08:58:49.869Z,100917.69
2018-07-31T09:01:20.633Z,100911.32
2018-07-31T09:03:49.056Z,100913.95
2018-07-31T09:06:18.720Z,100915.73
2018-07-31T09:08:47.287Z,100920.31
2018-07-31T09:11:15.678Z,100915.05
2018-07-31T09:13:44.253Z,100908.11
2018-07-31T09:16:12.772Z,100901.67
2018-07-31T09:18:42.390Z,100902.46
2018-07-31T09:21:11.846Z,100905.25
2018-07-31T09:23:40.741Z,100902.50
2018-07-31T09:26:09.240Z,100910.45
2018-07-31T09:28:37.680Z,100903.75
2018-07-31T09:31:11.381Z,100910.58
2018-07-31T09:33:39.817Z,100906.68
2018-07-31T09:36:08.195Z,100901.36
2018-07-31T09:38:36.627Z,100905.08
2018-07-31T09:41:05.365Z,100915.11
2018-07-31T09:43:34.761Z,100905.08
2018-07-31T09:46:03.986Z,100906.28
2018-07-31T09:48:32.415Z,100907.91
2018-07-31T09:51:01.681Z,100903.77
2018-07-31T09:53:30.133Z,100902.95
2018-07-31T09:55:58.831Z,100911.63
2018-07-31T09:58:27.528Z,100905.63
2018-07-31T10:01:02.187Z,100902.66
2018-07-31T10:03:30.801Z,100903.67
2018-07-31T10:05:59.275Z,100902.10
2018-07-31T10:08:27.700Z,100908.27
2018-07-31T10:10:56.474Z,100906.17
2018-07-31T10:13:25.439Z,100902.13
2018-07-31T10:15:53.886Z,100900.91
2018-07-31T10:18:22.463Z,100901.11
2018-07-31T10:20:52.567Z,100903.66
2018-07-31T10:23:21.024Z,100910.03
2018-07-31T10:25:49.581Z,100909.52
2018-07-31T10:28:19.036Z,100917.58
2018-07-31T10:30:49.298Z,100906.02
2018-07-31T10:33:18.389Z,100916.30
2018-07-31T10:35:46.850Z,100911.98
2018-07-31T10:38:15.326Z,100911.49
2018-07-31T10:40:43.832Z,100922.18
2018-07-31T10:43:13.099Z,100916.81
2018-07-31T10:45:42.495Z,100919.80
2018-07-31T10:48:11.836Z,100916.33
2018-07-31T10:50:40.250Z,100923.26
2018-07-31T10:53:08.869Z,100918.05
2018-07-31T10:55:37.723Z,100919.06
2018-07-31T10:58:06.636Z,100913.47
2018-07-31T11:00:35.383Z,100912.42
2018-07-31T11:03:09.836Z,100912.62
2018-07-31T11:05:38.357Z,100910.64
2018-07-31T11:08:07.410Z,100914.10
2018-07-31T11:10:36.440Z,100920.09
2018-07-31T11:13:04.975Z,100912.16
2018-07-31T11:15:33.351Z,100907.94
2018-07-31T11:18:02.597Z,100905.28
2018-07-31T11:20:31.274Z,100905.55
2018-07-31T11:22:59.811Z,100910.52
2018-07-31T11:25:28.324Z,100902.75
2018-07-31T11:27:56.873Z,100913.70
2018-07-31T11:30:25.369Z,100906.97
2018-07-31T11:32:54.103Z,100905.44
2018-07-31T11:35:23.376Z,100912.27
2018-07-31T11:37:51.880Z,100908.83
2018-07-31T11:40:21.323Z,100914.84
2018-07-31T11:42:49.753Z,100910.23
2018-07-31T11:45:18.235Z,100908.53
2018-07-31T11:47:48.531Z,100908.14
2018-07-31T11:50:17.249Z,100903.67
2018-07-31T11:52:46.159Z,100903.14
2018-07-31T11:55:14.628Z,100904.20
2018-07-31T11:57:44.215Z,100899.17
2018-07-31T12:00:14.314Z,100895.48
2018-07-31T12:02:43.345Z,100890.37
2018-07-31T12:05:13.134Z,100887.64
2018-07-31T12:07:41.908Z,100878.06
2018-07-31T12:10:11.415Z,100887.30
2018-07-31T12:12:40.012Z,100880.28
2018-07-31T12:15:08.803Z,100882.02
2018-07-31T12:17:37.925Z,100880.73
2018-07-31T12:20:06.447Z,100878.86
2018-07-31T12:22:35.592Z,100869.56
2018-07-31T12:25:04.169Z,100881.94
2018-07-31T12:27:32.652Z,100877.61
2018-07-31T12:30:01.062Z,100879.88
2018-07-31T12:32:29.994Z,100874.41
2018-07-31T12:34:58.587Z,100869.94
2018-07-31T12:37:27.513Z,100871.80
2018-07-31T12:39:56.048Z,100872.89
2018-07-31T12:42:24.589Z,100874.50
2018-07-31T12:44:54.343Z,100871.56
2018-07-31T12:47:22.897Z,100877.52
2018-07-31T12:49:51.555Z,100879.95
2018-07-31T12:52:21.865Z,100879.96
2018-07-31T12:54:51.594Z,100877.28
2018-07-31T12:57:21.711Z,100885.08
2018-07-31T12:59:50.513Z,100882.45
2018-07-31T13:02:19.794Z,100887.58
2018-07-31T13:04:49.100Z,100886.59
2018-07-31T13:07:18.121Z,100880.06
2018-07-31T13:09:47.204Z,100882.95
2018-07-31T13:12:15.788Z,100877.90
2018-07-31T13:14:44.679Z,100874.62
2018-07-31T13:17:14.759Z,100872.81
2018-07-31T13:19:43.315Z,100866.27
2018-07-31T13:22:11.822Z,100864.91
2018-07-31T13:24:40.198Z,100870.30
2018-07-31T13:27:08.696Z,100870.30
2018-07-31T13:29:38.181Z,100862.25
2018-07-31T13:32:07.765Z,100860.49
2018-07-31T13:34:36.393Z,100861.72
2018-07-31T13:37:05.115Z,100864.80
2018-07-31T13:39:33.788Z,100864.05
2018-07-31T13:42:02.304Z,100855.34
2018-07-31T13:44:30.817Z,100857.16
2018-07-31T13:46:59.499Z,100860.37
2018-07-31T13:49:28.118Z,100852.53
2018-07-31T13:51:57.191Z,100866.27
2018-07-31T13:54:25.850Z,100863.69
2018-07-31T13:56:55.175Z,100875.95
2018-07-31T13:59:24.166Z,100874.31
2018-07-31T14:01:53.268Z,100883.53
2018-07-31T14:04:22.320Z,100877.31
2018-07-31T14:06:51.590Z,100879.89
2018-07-31T14:09:20.071Z,100869.38
2018-07-31T14:11:48.616Z,100870.55
2018-07-31T14:14:17.821Z,100878.64
2018-07-31T14:16:47.285Z,100877.86
2018-07-31T14:19:16.203Z,100877.64
2018-07-31T14:21:45.518Z,100879.44
2018-07-31T14:24:14.177Z,100881.23
2018-07-31T14:26:43.668Z,100882.26
2018-07-31T14:29:13.786Z,100881.39
2018-07-31T14:31:43.069Z,100883.83
2018-07-31T14:34:11.969Z,100881.50
2018-07-31T14:36:40.896Z,100885.71
2018-07-31T14:39:11.181Z,100884.48
2018-07-31T14:41:40.582Z,100888.08
2018-07-31T14:44:09.261Z,100893.35
2018-07-31T14:46:39.829Z,100887.62
2018-07-31T14:49:08.946Z,100882.30
2018-07-31T14:51:37.968Z,100891.06
2018-07-31T14:54:07.250Z,100892.55
2018-07-31T14:56:35.770Z,100892.45
2018-07-31T14:59:05.060Z,100891.16
2018-07-31T15:01:35.442Z,100890.91
2018-07-31T15:04:04.025Z,100890.81
2018-07-31T15:06:32.780Z,100893.48
2018-07-31T15:09:01.451Z,100895.67
2018-07-31T15:11:30.961Z,100902.55
2018-07-31T15:14:00.462Z,100897.73
2018-07-31T15:16:29.908Z,100895.03
2018-07-31T15:18:58.433Z,100891.47
2018-07-31T15:21:29.546Z,100889.12
2018-07-31T15:23:58.077Z,100891.15
2018-07-31T15:26:31.716Z,100887.13
2018-07-31T15:29:00.567Z,100890.73
2018-07-31T15:31:29.129Z,100886.47
2018-07-31T15:33:59.335Z,100898.45
2018-07-31T15:36:28.910Z,100900.91
2018-07-31T15:38:57.868Z,100900.80
2018-07-31T15:41:26.833Z,100899.36
2018-07-31T15:43:55.901Z,100898.39
2018-07-31T15:46:24.997Z,100899.30
2018-07-31T15:48:54.540Z,100893.17
2018-07-31T15:51:24.105Z,100905.54
2018-07-31T15:53:52.968Z,100889.17
2018-07-31T15:56:22.514Z,100882.64
2018-07-31T15:58:53.312Z,100885.19
2018-07-31T16:01:21.981Z,100888.37
2018-07-31T16:03:51.225Z,100888.53
2018-07-31T16:06:20.822Z,100886.69
2018-07-31T16:08:50.429Z,100885.50
2018-07-31T16:11:24.677Z,100881.83
2018-07-31T16:13:54.194Z,100885.19
2018-07-31T16:16:23.028Z,100887.52
2018-07-31T16:18:53.045Z,100886.83
2018-07-31T16:21:23.329Z,100887.52
2018-07-31T16:23:54.027Z,100884.50
2018-07-31T16:26:24.295Z,100893.73
2018-07-31T16:28:52.879Z,100893.39
2018-07-31T16:31:21.400Z,100881.83
2018-07-31T16:33:50.345Z,100892.70
2018-07-31T16:36:19.808Z,100894.05
2018-07-31T16:38:48.297Z,100893.38
2018-07-31T16:41:21.394Z,100891.11
2018-07-31T16:43:53.277Z,100897.38
2018-07-31T16:46:21.840Z,100896.58
2018-07-31T16:48:51.524Z,100900.66
2018-07-31T16:51:20.830Z,100898.03
2018-07-31T16:53:50.001Z,100901.31
2018-07-31T16:56:18.825Z,100896.69
2018-07-31T16:58:48.073Z,100905.52
2018-07-31T17:01:17.447Z,100905.62
2018-07-31T17:03:46.864Z,100900.23
2018-07-31T17:06:15.463Z,100906.31
2018-07-31T17:08:44.865Z,100910.32
2018-07-31T17:11:14.050Z,100908.10
2018-07-31T17:13:44.624Z,100913.33
2018-07-31T17:16:14.190Z,100912.13
2018-07-31T17:18:44.049Z,100909.64
2018-07-31T17:21:13.499Z,100918.98
2018-07-31T17:23:43.562Z,100920.40
2018-07-31T17:26:13.968Z,100918.87
2018-07-31T17:28:43.277Z,100930.42
2018-07-31T17:31:14.439Z,100927.66
2018-07-31T17:33:45.166Z,100935.23
2018-07-31T17:36:14.555Z,100934.16
2018-07-31T17:38:44.538Z,100936.98
2018-07-31T17:41:13.327Z,100934.61
2018-07-31T17:43:41.820Z,100945.44
2018-07-31T17:46:10.306Z,100943.98
2018-07-31T17:48:39.807Z,100943.72
2018-07-31T17:51:09.044Z,100947.17
2018-07-31T17:53:38.128Z,100946.09
2018-07-31T17:56:06.524Z,100948.80
2018-07-31T17:58:37.190Z,100948.60
2018-07-31T18:01:05.900Z,100944.73
2018-07-31T18:03:35.091Z,100953.66
2018-07-31T18:06:04.417Z,100967.98
2018-07-31T18:08:32.847Z,100985.11
2018-07-31T18:11:01.710Z,100989.91
2018-07-31T18:13:30.694Z,101001.94
2018-07-31T18:15:59.232Z,101007.95
2018-07-31T18:19:57.238Z,101012.98
2018-07-31T18:22:25.766Z,101023.85
2018-07-31T18:24:54.179Z,101028.38
2018-07-31T18:27:22.748Z,101039.89
2018-07-31T18:29:53.391Z,101043.43
2018-07-31T18:32:22.637Z,101048.48
2018-07-31T18:34:52.793Z,101050.44
2018-07-31T18:37:22.301Z,101054.20
2018-07-31T18:39:51.217Z,101058.80
2018-07-31T18:42:20.568Z,101056.27
2018-07-31T18:44:51.706Z,101068.47
2018-07-31T18:47:22.104Z,101061.00
2018-07-31T18:49:54.520Z,101059.66
2018-07-31T18:52:22.943Z,101059.28
2018-07-31T18:54:51.669Z,101076.75
2018-07-31T18:57:21.600Z,101081.69
2018-07-31T18:59:50.585Z,101086.28
2018-07-31T19:02:19.301Z,101096.41
2018-07-31T19:04:48.031Z,101095.29
2018-07-31T19:07:17.085Z,101101.58
2018-07-31T19:09:46.054Z,101115.14
2018-07-31T19:12:17.068Z,101120.41
2018-07-31T19:14:46.334Z,101118.37
2018-07-31T19:17:15.825Z,101121.23
2018-07-31T19:19:46.280Z,101125.77
2018-07-31T19:22:15.366Z,101126.67
2018-07-31T19:24:44.226Z,101133.08
2018-07-31T19:27:13.136Z,101138.49
2018-07-31T19:29:42.315Z,101140.84
2018-07-31T19:32:11.947Z,101146.20
2018-07-31T19:34:41.162Z,101158.69
2018-07-31T19:37:09.902Z,101151.52
2018-07-31T19:39:38.625Z,101153.52
2018-07-31T19:42:07.708Z,101164.83
2018-07-31T19:44:39.652Z,101171.52
2018-07-31T19:47:08.693Z,101162.06
2018-07-31T19:49:39.180Z,101166.48
2018-07-31T19:52:07.676Z,101170.59
2018-07-31T19:54:36.362Z,101174.09
2018-07-31T19:57:05.849Z,101180.61
2018-07-31T19:59:34.462Z,101179.06
2018-07-31T20:02:03.103Z,101181.05
2018-07-31T20:04:32.770Z,101188.18
2018-07-31T20:07:03.166Z,101183.56
2018-07-31T20:09:32.964Z,101196.00
2018-07-31T20:12:03.259Z,101186.58
2018-07-31T20:14:32.330Z,101196.37
2018-07-31T20:17:01.550Z,101190.97
2018-07-31T20:19:31.262Z,101200.05
2018-07-31T20:21:59.935Z,101204.92
2018-07-31T20:24:30.604Z,101211.14
2018-07-31T20:26:59.379Z,101205.05
2018-07-31T20:29:28.882Z,101213.23
2018-07-31T20:31:57.531Z,101216.80
2018-07-31T20:34:27.046Z,101222.46
2018-07-31T20:36:59.629Z,101228.19
2018-07-31T20:39:29.319Z,101230.44
2018-07-31T20:41:58.005Z,101219.47
2018-07-31T20:44:27.862Z,101229.21
2018-07-31T20:46:56.476Z,101235.39
2018-07-31T20:49:26.092Z,101244.27
2018-07-31T20:51:55.084Z,101244.56
2018-07-31T20:54:41.126Z,101251.13
2018-07-31T20:57:09.777Z,101258.03
2018-07-31T20:59:38.444Z,101259.76
2018-07-31T21:02:07.414Z,101257.64
2018-07-31T21:04:36.369Z,101257.17
2018-07-31T21:07:05.401Z,101266.24
2018-07-31T21:09:33.872Z,101271.33
2018-07-31T21:12:03.357Z,101274.23
2018-07-31T21:14:34.195Z,101275.77
2018-07-31T21:17:03.693Z,101283.22
2018-07-31T21:19:32.285Z,101282.48
2018-07-31T21:22:00.891Z,101287.56
2018-07-31T21:24:29.566Z,101285.28
2018-07-31T21:26:58.171Z,101282.75
2018-07-31T21:29:28.837Z,101297.61
2018-07-31T21:31:59.471Z,101294.31
2018-07-31T21:34:29.186Z,101293.58
2018-07-31T21:36:59.803Z,101289.23
2018-07-31T21:39:29.098Z,101297.66
2018-07-31T21:41:59.646Z,101304.33
2018-07-31T21:44:30.080Z,101305.65
2018-07-31T21:46:59.697Z,101312.71
2018-07-31T21:49:29.046Z,101322.06
2018-07-31T21:51:58.809Z,101316.95
2018-07-31T21:54:28.134Z,101331.25
2018-07-31T21:56:57.217Z,101331.56
2018-07-31T21:59:27.628Z,101335.41
2018-07-31T22:01:57.764Z,101338.05
2018-07-31T22:04:26.323Z,101334.66
2018-07-31T22:06:59.364Z,101330.83
2018-07-31T22:09:33.606Z,101332.14
2018-07-31T22:12:08.969Z,101336.31
2018-07-31T22:14:38.140Z,101341.36
2018-07-31T22:17:10.906Z,101343.70
2018-07-31T22:19:40.497Z,101344.12
2018-07-31T22:22:12.434Z,101349.58
2018-07-31T22:24:41.183Z,101353.59
2018-07-31T22:27:11.645Z,101357.59
2018-07-31T22:29:41.614Z,101368.95
2018-07-31T22:32:11.256Z,101376.00
2018-07-31T22:34:41.268Z,101374.26
2018-07-31T22:37:11.673Z,101376.42
2018-07-31T22:39:40.682Z,101376.78
2018-07-31T22:42:09.843Z,101373.51
2018-07-31T22:44:40.185Z,101385.26
2018-07-31T22:47:09.299Z,101387.61
2018-07-31T22:49:39.281Z,101388.17
2018-07-31T22:52:08.484Z,101386.54
2018-07-31T22:54:37.590Z,101386.54
2018-07-31T22:57:06.151Z,101393.17
2018-07-31T22:59:36.249Z,101389.78
2018-07-31T23:02:04.715Z,101375.94
2018-07-31T23:04:34.011Z,101384.11
2018-07-31T23:07:05.335Z,101385.73
2018-07-31T23:09:34.364Z,101391.17
2018-07-31T23:12:03.523Z,101387.86
2018-07-31T23:14:33.252Z,101396.66
2018-07-31T23:17:02.352Z,101390.70
2018-07-31T23:19:30.804Z,101395.02
2018-07-31T23:21:59.410Z,101399.24
2018-07-31T23:24:28.035Z,101392.73
2018-07-31T23:26:56.817Z,101394.91
2018-07-31T23:29:25.507Z,101393.94
2018-07-31T23:31:54.569Z,101393.12
2018-07-31T23:34:24.291Z,101401.67
2018-07-31T23:36:53.838Z,101414.20
2018-07-31T23:39:24.187Z,101406.55
2018-07-31T23:41:53.477Z,101402.53
2018-07-31T23:44:22.503Z,101398.30
2018-07-31T23:46:52.511Z,101400.76
2018-07-31T23:49:21.876Z,101399.52
2018-07-31T23:51:51.192Z,101397.89
2018-07-31T23:54:19.862Z,101409.45
2018-07-31T23:56:49.009Z,101407.88
2018-07-31T23:59:18.616Z,101422.66
